VOE2786 LFST-EKCH
Flight info
| Callsign | VOE2786 |
|---|---|
| Flight time | 1h 23m |
| Altitude | 37000 |
| Route | GTQ N852 DIK N853 KENUM DCT WIMCI DCT PIBUL P605 GESKA Z711 MONAK |
| Aircraft | A320/M-SDE3FGHIRWY/LB1 |
Departure
| Time | 2026-05-08 21:05 |
|---|---|
| Airport | Strasbourg Airport (LFST) |
Arrival
| Time | 2026-05-08 22:28 |
|---|---|
| Airport | Copenhagen Kastrup Airport (EKCH) |
| Time | Latitude | Longitude | Altitude | Speed | Heading |
|---|---|---|---|---|---|
| 2026-05-08 20:50 | 48.54366 | 7.62795 | 504 ft | 0 kts | 2° |
| 2026-05-08 20:55 | 48.54365 | 7.62795 | 504 ft | 1 kts | 3° |
| 2026-05-08 20:56 | 48.54351 | 7.62796 | 505 ft | 2 kts | 1° |
| 2026-05-08 20:56 | 48.54335 | 7.62794 | 505 ft | 2 kts | 2° |
| 2026-05-08 20:56 | 48.54321 | 7.62794 | 505 ft | 2 kts | 358° |
| 2026-05-08 20:56 | 48.54306 | 7.62789 | 505 ft | 2 kts | 29° |
| 2026-05-08 20:57 | 48.54293 | 7.62776 | 505 ft | 2 kts | 47° |
| 2026-05-08 20:57 | 48.54285 | 7.62758 | 505 ft | 2 kts | 65° |
| 2026-05-08 20:57 | 48.54281 | 7.62742 | 505 ft | 0 kts | 78° |
| 2026-05-08 20:59 | 48.54282 | 7.62750 | 505 ft | 1 kts | 78° |
| 2026-05-08 20:59 | 48.54281 | 7.62787 | 504 ft | 5 kts | 112° |
| 2026-05-08 21:00 | 48.54248 | 7.62840 | 504 ft | 8 kts | 138° |
| 2026-05-08 21:00 | 48.54194 | 7.62910 | 504 ft | 11 kts | 141° |
| 2026-05-08 21:00 | 48.54114 | 7.62911 | 504 ft | 13 kts | 220° |
| 2026-05-08 21:00 | 48.54046 | 7.62798 | 505 ft | 15 kts | 229° |
| 2026-05-08 21:01 | 48.53972 | 7.62672 | 505 ft | 16 kts | 229° |
| 2026-05-08 21:01 | 48.53893 | 7.62535 | 506 ft | 17 kts | 230° |
| 2026-05-08 21:01 | 48.53810 | 7.62390 | 506 ft | 18 kts | 226° |
| 2026-05-08 21:01 | 48.53722 | 7.62244 | 507 ft | 18 kts | 229° |
| 2026-05-08 21:02 | 48.53637 | 7.62097 | 508 ft | 18 kts | 229° |
| 2026-05-08 21:02 | 48.53553 | 7.61952 | 509 ft | 18 kts | 229° |
| 2026-05-08 21:02 | 48.53470 | 7.61811 | 510 ft | 17 kts | 229° |
| 2026-05-08 21:02 | 48.53388 | 7.61673 | 510 ft | 17 kts | 229° |
| 2026-05-08 21:03 | 48.53317 | 7.61551 | 511 ft | 13 kts | 229° |
| 2026-05-08 21:03 | 48.53265 | 7.61481 | 512 ft | 9 kts | 197° |
| 2026-05-08 21:03 | 48.53201 | 7.61517 | 512 ft | 10 kts | 141° |
| 2026-05-08 21:03 | 48.53155 | 7.61611 | 511 ft | 11 kts | 97° |
| 2026-05-08 21:04 | 48.53198 | 7.61734 | 511 ft | 21 kts | 49° |
| 2026-05-08 21:04 | 48.53472 | 7.62200 | 508 ft | 96 kts | 48° |
| 2026-05-08 21:04 | 48.54057 | 7.63209 | 505 ft | 156 kts | 49° |
| 2026-05-08 21:04 | 48.54805 | 7.64532 | 1000 ft | 167 kts | 50° |
| 2026-05-08 21:05 | 48.55523 | 7.65854 | 1789 ft | 164 kts | 52° |
| 2026-05-08 21:05 | 48.56225 | 7.67149 | 2522 ft | 164 kts | 52° |
| 2026-05-08 21:05 | 48.57013 | 7.68515 | 2936 ft | 180 kts | 51° |
| 2026-05-08 21:05 | 48.57860 | 7.70000 | 3356 ft | 195 kts | 52° |
| 2026-05-08 21:06 | 48.58763 | 7.71640 | 3759 ft | 213 kts | 50° |
| 2026-05-08 21:06 | 48.59990 | 7.72946 | 4353 ft | 226 kts | 18° |
| 2026-05-08 21:06 | 48.61561 | 7.72951 | 5042 ft | 234 kts | 341° |
| 2026-05-08 21:06 | 48.62872 | 7.71576 | 5801 ft | 234 kts | 305° |
| 2026-05-08 21:07 | 48.63435 | 7.69349 | 6585 ft | 231 kts | 270° |
| 2026-05-08 21:07 | 48.63061 | 7.67062 | 7408 ft | 227 kts | 238° |
| 2026-05-08 21:07 | 48.62042 | 7.65285 | 8197 ft | 228 kts | 228° |
| 2026-05-08 21:07 | 48.61060 | 7.63401 | 8949 ft | 230 kts | 236° |
| 2026-05-08 21:08 | 48.60191 | 7.61398 | 9688 ft | 233 kts | 238° |
| 2026-05-08 21:08 | 48.59306 | 7.59333 | 10466 ft | 236 kts | 238° |
| 2026-05-08 21:08 | 48.58417 | 7.57280 | 11228 ft | 238 kts | 237° |
| 2026-05-08 21:08 | 48.57500 | 7.55182 | 11908 ft | 243 kts | 237° |
| 2026-05-08 21:09 | 48.56592 | 7.52949 | 12305 ft | 260 kts | 248° |
| 2026-05-08 21:09 | 48.56240 | 7.50179 | 12647 ft | 279 kts | 272° |
| 2026-05-08 21:09 | 48.56581 | 7.47217 | 13006 ft | 297 kts | 282° |
| 2026-05-08 21:09 | 48.57323 | 7.44228 | 13346 ft | 318 kts | 301° |
| 2026-05-08 21:10 | 48.58752 | 7.41561 | 13781 ft | 333 kts | 311° |
| 2026-05-08 21:10 | 48.60370 | 7.39003 | 14411 ft | 339 kts | 312° |
| 2026-05-08 21:10 | 48.61981 | 7.36446 | 15083 ft | 342 kts | 311° |
| 2026-05-08 21:10 | 48.63595 | 7.33814 | 15738 ft | 345 kts | 310° |
| 2026-05-08 21:11 | 48.65219 | 7.31109 | 16390 ft | 348 kts | 309° |
| 2026-05-08 21:11 | 48.66828 | 7.28388 | 17027 ft | 351 kts | 309° |
| 2026-05-08 21:11 | 48.68467 | 7.25595 | 17644 ft | 354 kts | 309° |
| 2026-05-08 21:11 | 48.70082 | 7.22830 | 18222 ft | 357 kts | 309° |
| 2026-05-08 21:12 | 48.71736 | 7.19987 | 18795 ft | 361 kts | 309° |
| 2026-05-08 21:12 | 48.73406 | 7.17116 | 19366 ft | 364 kts | 309° |
| 2026-05-08 21:12 | 48.75080 | 7.14232 | 19913 ft | 367 kts | 309° |
| 2026-05-08 21:12 | 48.76769 | 7.11323 | 20472 ft | 370 kts | 309° |
| 2026-05-08 21:13 | 48.78450 | 7.08403 | 21028 ft | 372 kts | 308° |
| 2026-05-08 21:13 | 48.80143 | 7.05364 | 21586 ft | 375 kts | 308° |
| 2026-05-08 21:13 | 48.81803 | 7.02355 | 22111 ft | 377 kts | 308° |
| 2026-05-08 21:13 | 48.83504 | 6.99262 | 22644 ft | 380 kts | 308° |
| 2026-05-08 21:14 | 48.85181 | 6.96214 | 23142 ft | 382 kts | 308° |
| 2026-05-08 21:14 | 48.86908 | 6.93077 | 23678 ft | 384 kts | 308° |
| 2026-05-08 21:14 | 48.88620 | 6.89967 | 24165 ft | 386 kts | 308° |
| 2026-05-08 21:14 | 48.90322 | 6.86866 | 24604 ft | 388 kts | 308° |
| 2026-05-08 21:15 | 48.92052 | 6.83711 | 25027 ft | 390 kts | 308° |
| 2026-05-08 21:15 | 48.93807 | 6.80511 | 25430 ft | 393 kts | 308° |
| 2026-05-08 21:15 | 48.95552 | 6.77328 | 25826 ft | 395 kts | 308° |
| 2026-05-08 21:15 | 48.97394 | 6.74192 | 26227 ft | 398 kts | 315° |
| 2026-05-08 21:16 | 48.99544 | 6.71535 | 26628 ft | 401 kts | 324° |
| 2026-05-08 21:16 | 49.01994 | 6.69426 | 27003 ft | 404 kts | 333° |
| 2026-05-08 21:16 | 49.04561 | 6.67689 | 27385 ft | 406 kts | 335° |
| 2026-05-08 21:16 | 49.07168 | 6.65995 | 27750 ft | 407 kts | 335° |
| 2026-05-08 21:17 | 49.09781 | 6.64297 | 28125 ft | 408 kts | 335° |
| 2026-05-08 21:17 | 49.12386 | 6.62592 | 28491 ft | 409 kts | 335° |
| 2026-05-08 21:17 | 49.14996 | 6.60874 | 28828 ft | 410 kts | 335° |
| 2026-05-08 21:17 | 49.17621 | 6.59137 | 29158 ft | 412 kts | 335° |
| 2026-05-08 21:18 | 49.20269 | 6.57382 | 29472 ft | 413 kts | 335° |
| 2026-05-08 21:18 | 49.22901 | 6.55634 | 29802 ft | 414 kts | 335° |
| 2026-05-08 21:18 | 49.25587 | 6.53849 | 30090 ft | 416 kts | 335° |
| 2026-05-08 21:18 | 49.28241 | 6.52081 | 30397 ft | 417 kts | 335° |
| 2026-05-08 21:19 | 49.30904 | 6.50305 | 30672 ft | 418 kts | 335° |
| 2026-05-08 21:19 | 49.33586 | 6.48514 | 30935 ft | 420 kts | 335° |
| 2026-05-08 21:19 | 49.36272 | 6.46719 | 31206 ft | 421 kts | 335° |
| 2026-05-08 21:19 | 49.38974 | 6.44841 | 31467 ft | 422 kts | 334° |
| 2026-05-08 21:20 | 49.41628 | 6.42908 | 31706 ft | 423 kts | 334° |
| 2026-05-08 21:20 | 49.44279 | 6.40965 | 31911 ft | 424 kts | 334° |
| 2026-05-08 21:20 | 49.46941 | 6.39064 | 32148 ft | 425 kts | 335° |
| 2026-05-08 21:20 | 49.49676 | 6.37267 | 32451 ft | 423 kts | 336° |
| 2026-05-08 21:21 | 49.52388 | 6.35521 | 32743 ft | 422 kts | 336° |
| 2026-05-08 21:21 | 49.55098 | 6.33779 | 33016 ft | 422 kts | 336° |
| 2026-05-08 21:21 | 49.57797 | 6.32040 | 33317 ft | 420 kts | 336° |
| 2026-05-08 21:21 | 49.60506 | 6.30292 | 33585 ft | 419 kts | 336° |
| 2026-05-08 21:22 | 49.63195 | 6.28553 | 33830 ft | 419 kts | 336° |
| 2026-05-08 21:22 | 49.65861 | 6.26796 | 34081 ft | 418 kts | 335° |
| 2026-05-08 21:22 | 49.68518 | 6.24999 | 34325 ft | 417 kts | 335° |
| 2026-05-08 21:22 | 49.71186 | 6.23183 | 34524 ft | 417 kts | 335° |
| 2026-05-08 21:23 | 49.73854 | 6.21368 | 34707 ft | 417 kts | 335° |
| 2026-05-08 21:23 | 49.76492 | 6.19575 | 34885 ft | 418 kts | 335° |
| 2026-05-08 21:23 | 49.79168 | 6.17828 | 35037 ft | 419 kts | 338° |
| 2026-05-08 21:23 | 49.81951 | 6.16312 | 35179 ft | 420 kts | 341° |
| 2026-05-08 21:24 | 49.84762 | 6.15091 | 35305 ft | 421 kts | 345° |
| 2026-05-08 21:24 | 49.87607 | 6.14155 | 35432 ft | 422 kts | 348° |
| 2026-05-08 21:24 | 49.90522 | 6.13499 | 35552 ft | 424 kts | 352° |
| 2026-05-08 21:24 | 49.93504 | 6.13135 | 35675 ft | 426 kts | 355° |
| 2026-05-08 21:25 | 49.96449 | 6.13045 | 35763 ft | 428 kts | 358° |
| 2026-05-08 21:25 | 49.99429 | 6.13049 | 35864 ft | 430 kts | 358° |
| 2026-05-08 21:25 | 50.02436 | 6.13076 | 36004 ft | 430 kts | 358° |
| 2026-05-08 21:25 | 50.05419 | 6.13102 | 36147 ft | 431 kts | 358° |
| 2026-05-08 21:26 | 50.08451 | 6.13127 | 36271 ft | 432 kts | 358° |
| 2026-05-08 21:26 | 50.11437 | 6.13148 | 36381 ft | 433 kts | 358° |
| 2026-05-08 21:26 | 50.14467 | 6.13168 | 36504 ft | 434 kts | 358° |
| 2026-05-08 21:26 | 50.17508 | 6.13185 | 36632 ft | 435 kts | 358° |
| 2026-05-08 21:27 | 50.20543 | 6.13205 | 36751 ft | 436 kts | 358° |
| 2026-05-08 21:27 | 50.26617 | 6.13262 | 36949 ft | 438 kts | 359° |
| 2026-05-08 21:27 | 50.29692 | 6.13507 | 37054 ft | 440 kts | 2° |
| 2026-05-08 21:28 | 50.32750 | 6.14009 | 37112 ft | 442 kts | 5° |
| 2026-05-08 21:28 | 50.38845 | 6.15480 | 37120 ft | 443 kts | 7° |
| 2026-05-08 21:29 | 50.44950 | 6.17037 | 37122 ft | 443 kts | 7° |
| 2026-05-08 21:29 | 50.51038 | 6.18582 | 37120 ft | 443 kts | 7° |
| 2026-05-08 21:30 | 50.57159 | 6.20135 | 37119 ft | 442 kts | 7° |
| 2026-05-08 21:30 | 50.63251 | 6.21705 | 37124 ft | 443 kts | 8° |
| 2026-05-08 21:31 | 50.69208 | 6.24285 | 37120 ft | 446 kts | 18° |
| 2026-05-08 21:31 | 50.74832 | 6.28408 | 37114 ft | 449 kts | 27° |
| 2026-05-08 21:32 | 50.80033 | 6.34058 | 37120 ft | 452 kts | 36° |
| 2026-05-08 21:32 | 50.84891 | 6.40358 | 37109 ft | 452 kts | 37° |
| 2026-05-08 21:33 | 50.89779 | 6.46777 | 37117 ft | 452 kts | 37° |
| 2026-05-08 21:33 | 50.94606 | 6.53111 | 37114 ft | 452 kts | 37° |
| 2026-05-08 21:34 | 50.99482 | 6.59514 | 37110 ft | 452 kts | 37° |
| 2026-05-08 21:34 | 51.04374 | 6.65961 | 37118 ft | 453 kts | 38° |
| 2026-05-08 21:35 | 51.09216 | 6.72364 | 37120 ft | 453 kts | 38° |
| 2026-05-08 21:35 | 51.14085 | 6.78812 | 37121 ft | 454 kts | 38° |
| 2026-05-08 21:36 | 51.18953 | 6.85279 | 37127 ft | 453 kts | 38° |
| 2026-05-08 21:36 | 51.23736 | 6.91648 | 37116 ft | 453 kts | 38° |
| 2026-05-08 21:37 | 51.28604 | 6.98151 | 37120 ft | 453 kts | 38° |
| 2026-05-08 21:37 | 51.31043 | 7.01415 | 37285 ft | 453 kts | 38° |
| 2026-05-08 21:37 | 51.33429 | 7.04614 | 37232 ft | 452 kts | 38° |
| 2026-05-08 21:38 | 51.38291 | 7.11146 | 37152 ft | 452 kts | 38° |
| 2026-05-08 21:38 | 51.43100 | 7.17626 | 37136 ft | 452 kts | 38° |
| 2026-05-08 21:39 | 51.47922 | 7.24140 | 37130 ft | 451 kts | 38° |
| 2026-05-08 21:39 | 51.52722 | 7.30645 | 37140 ft | 451 kts | 38° |
| 2026-05-08 21:40 | 51.57539 | 7.37188 | 37139 ft | 451 kts | 38° |
| 2026-05-08 21:40 | 51.62368 | 7.43767 | 37143 ft | 452 kts | 38° |
| 2026-05-08 21:41 | 51.69568 | 7.53614 | 37150 ft | 451 kts | 38° |
| 2026-05-08 21:41 | 51.74393 | 7.60238 | 37143 ft | 452 kts | 38° |
| 2026-05-08 21:42 | 51.79185 | 7.66837 | 37145 ft | 451 kts | 38° |
| 2026-05-08 21:42 | 51.83967 | 7.73438 | 37140 ft | 451 kts | 38° |
| 2026-05-08 21:43 | 51.88732 | 7.80035 | 37139 ft | 451 kts | 38° |
| 2026-05-08 21:43 | 51.93497 | 7.86648 | 37151 ft | 451 kts | 38° |
| 2026-05-08 21:44 | 51.98271 | 7.93295 | 37142 ft | 450 kts | 38° |
| 2026-05-08 21:44 | 52.03050 | 7.99969 | 37149 ft | 451 kts | 38° |
| 2026-05-08 21:45 | 52.07815 | 8.06647 | 37144 ft | 451 kts | 38° |
| 2026-05-08 21:45 | 52.12463 | 8.13179 | 37141 ft | 452 kts | 38° |
| 2026-05-08 21:46 | 52.17222 | 8.19883 | 37143 ft | 452 kts | 38° |
| 2026-05-08 21:46 | 52.22013 | 8.26650 | 37145 ft | 453 kts | 38° |
| 2026-05-08 21:47 | 52.26772 | 8.33394 | 37151 ft | 453 kts | 38° |
| 2026-05-08 21:47 | 52.31535 | 8.40164 | 37155 ft | 453 kts | 38° |
| 2026-05-08 21:48 | 52.36277 | 8.46925 | 37155 ft | 453 kts | 38° |
| 2026-05-08 21:48 | 52.41022 | 8.53711 | 37157 ft | 453 kts | 38° |
| 2026-05-08 21:49 | 52.45773 | 8.60525 | 37156 ft | 453 kts | 38° |
| 2026-05-08 21:49 | 52.50421 | 8.67208 | 37166 ft | 454 kts | 39° |
| 2026-05-08 21:50 | 52.55164 | 8.74051 | 37164 ft | 455 kts | 39° |
| 2026-05-08 21:50 | 52.59934 | 8.80950 | 37168 ft | 455 kts | 39° |
| 2026-05-08 21:51 | 52.64681 | 8.87839 | 37168 ft | 455 kts | 39° |
| 2026-05-08 21:51 | 52.69434 | 8.94757 | 37175 ft | 455 kts | 39° |
| 2026-05-08 21:52 | 52.74233 | 9.01606 | 37174 ft | 455 kts | 38° |
| 2026-05-08 21:52 | 52.79040 | 9.08450 | 37176 ft | 455 kts | 38° |
| 2026-05-08 21:53 | 52.83827 | 9.15297 | 37185 ft | 455 kts | 38° |
| 2026-05-08 21:53 | 52.88621 | 9.22179 | 37181 ft | 455 kts | 38° |
| 2026-05-08 21:54 | 52.93421 | 9.29093 | 37179 ft | 456 kts | 38° |
| 2026-05-08 21:54 | 52.98217 | 9.36021 | 37182 ft | 456 kts | 38° |
| 2026-05-08 21:55 | 53.02999 | 9.42950 | 37182 ft | 456 kts | 38° |
| 2026-05-08 21:56 | 53.10057 | 9.53217 | 37182 ft | 456 kts | 38° |
| 2026-05-08 21:56 | 53.14827 | 9.60183 | 37182 ft | 455 kts | 38° |
| 2026-05-08 21:57 | 53.19582 | 9.67148 | 37185 ft | 456 kts | 39° |
| 2026-05-08 21:57 | 53.24399 | 9.74226 | 37183 ft | 457 kts | 39° |
| 2026-05-08 21:58 | 53.29178 | 9.81270 | 37181 ft | 457 kts | 39° |
| 2026-05-08 21:58 | 53.33960 | 9.88339 | 37190 ft | 458 kts | 39° |
| 2026-05-08 21:59 | 53.38762 | 9.95462 | 37191 ft | 458 kts | 39° |
| 2026-05-08 21:59 | 53.43543 | 10.02576 | 37197 ft | 458 kts | 39° |
| 2026-05-08 22:00 | 53.48277 | 10.09640 | 37201 ft | 457 kts | 39° |
| 2026-05-08 22:00 | 53.53038 | 10.16767 | 37202 ft | 457 kts | 39° |
| 2026-05-08 22:01 | 53.57788 | 10.23901 | 37205 ft | 458 kts | 39° |
| 2026-05-08 22:01 | 53.62544 | 10.31066 | 37206 ft | 458 kts | 39° |
| 2026-05-08 22:02 | 53.67285 | 10.38231 | 37205 ft | 459 kts | 39° |
| 2026-05-08 22:02 | 53.72060 | 10.45471 | 37208 ft | 458 kts | 39° |
| 2026-05-08 22:03 | 53.76795 | 10.52672 | 37213 ft | 458 kts | 39° |
| 2026-05-08 22:03 | 53.81531 | 10.59896 | 37217 ft | 458 kts | 39° |
| 2026-05-08 22:04 | 53.86240 | 10.67100 | 37217 ft | 458 kts | 40° |
| 2026-05-08 22:04 | 53.90972 | 10.74367 | 37219 ft | 459 kts | 40° |
| 2026-05-08 22:05 | 53.95705 | 10.81660 | 37223 ft | 459 kts | 40° |
| 2026-05-08 22:05 | 54.00410 | 10.88930 | 37223 ft | 460 kts | 40° |
| 2026-05-08 22:06 | 54.05151 | 10.96280 | 37225 ft | 460 kts | 40° |
| 2026-05-08 22:06 | 54.09860 | 11.03602 | 37229 ft | 460 kts | 40° |
| 2026-05-08 22:07 | 54.14601 | 11.11000 | 36856 ft | 460 kts | 40° |
| 2026-05-08 22:07 | 54.16921 | 11.14629 | 36340 ft | 461 kts | 40° |
| 2026-05-08 22:07 | 54.19276 | 11.18319 | 35734 ft | 463 kts | 40° |
| 2026-05-08 22:07 | 54.21639 | 11.22024 | 35073 ft | 465 kts | 40° |
| 2026-05-08 22:08 | 54.24041 | 11.25801 | 34363 ft | 467 kts | 40° |
| 2026-05-08 22:08 | 54.26422 | 11.29550 | 33620 ft | 468 kts | 40° |
| 2026-05-08 22:08 | 54.28803 | 11.33304 | 32815 ft | 468 kts | 39° |
| 2026-05-08 22:08 | 54.31173 | 11.37048 | 32191 ft | 463 kts | 39° |
| 2026-05-08 22:09 | 54.33523 | 11.40768 | 31526 ft | 460 kts | 39° |
| 2026-05-08 22:09 | 54.35859 | 11.44482 | 30813 ft | 458 kts | 40° |
| 2026-05-08 22:09 | 54.38095 | 11.48358 | 30057 ft | 456 kts | 44° |
| 2026-05-08 22:09 | 54.40277 | 11.52418 | 29317 ft | 453 kts | 44° |
| 2026-05-08 22:10 | 54.42386 | 11.56415 | 28599 ft | 449 kts | 45° |
| 2026-05-08 22:10 | 54.44471 | 11.60384 | 27890 ft | 446 kts | 45° |
| 2026-05-08 22:10 | 54.46538 | 11.64317 | 27184 ft | 442 kts | 45° |
| 2026-05-08 22:10 | 54.48589 | 11.68212 | 26486 ft | 438 kts | 45° |
| 2026-05-08 22:11 | 54.50617 | 11.72061 | 25795 ft | 434 kts | 46° |
| 2026-05-08 22:11 | 54.52653 | 11.75927 | 25105 ft | 430 kts | 46° |
| 2026-05-08 22:11 | 54.54638 | 11.79702 | 24425 ft | 427 kts | 46° |
| 2026-05-08 22:11 | 54.56608 | 11.83460 | 23754 ft | 423 kts | 46° |
| 2026-05-08 22:12 | 54.58558 | 11.87188 | 23177 ft | 417 kts | 46° |
| 2026-05-08 22:12 | 54.60528 | 11.90833 | 22644 ft | 410 kts | 43° |
| 2026-05-08 22:12 | 54.62623 | 11.94081 | 22129 ft | 402 kts | 37° |
| 2026-05-08 22:12 | 54.64831 | 11.96903 | 21601 ft | 396 kts | 33° |
| 2026-05-08 22:13 | 54.67124 | 11.99571 | 21122 ft | 390 kts | 32° |
| 2026-05-08 22:13 | 54.69358 | 12.02128 | 20636 ft | 385 kts | 32° |
| 2026-05-08 22:13 | 54.71560 | 12.04651 | 20156 ft | 380 kts | 32° |
| 2026-05-08 22:13 | 54.73751 | 12.07174 | 19675 ft | 376 kts | 32° |
| 2026-05-08 22:14 | 54.75918 | 12.09677 | 19198 ft | 372 kts | 32° |
| 2026-05-08 22:14 | 54.78070 | 12.12172 | 18720 ft | 368 kts | 32° |
| 2026-05-08 22:14 | 54.80166 | 12.14606 | 18259 ft | 365 kts | 32° |
| 2026-05-08 22:14 | 54.82265 | 12.17044 | 17803 ft | 361 kts | 32° |
| 2026-05-08 22:15 | 54.84324 | 12.19440 | 17349 ft | 358 kts | 32° |
| 2026-05-08 22:15 | 54.86396 | 12.21855 | 16886 ft | 355 kts | 33° |
| 2026-05-08 22:15 | 54.88426 | 12.24224 | 16430 ft | 353 kts | 33° |
| 2026-05-08 22:15 | 54.90463 | 12.26606 | 15960 ft | 350 kts | 33° |
| 2026-05-08 22:16 | 54.92471 | 12.28958 | 15510 ft | 347 kts | 33° |
| 2026-05-08 22:16 | 54.94455 | 12.31284 | 15066 ft | 345 kts | 33° |
| 2026-05-08 22:16 | 54.96436 | 12.33606 | 14607 ft | 342 kts | 33° |
| 2026-05-08 22:16 | 54.98400 | 12.35909 | 14165 ft | 339 kts | 33° |
| 2026-05-08 22:17 | 55.00349 | 12.38196 | 13727 ft | 336 kts | 33° |
| 2026-05-08 22:17 | 55.02320 | 12.40496 | 13255 ft | 334 kts | 33° |
| 2026-05-08 22:17 | 55.04261 | 12.42757 | 12797 ft | 332 kts | 34° |
| 2026-05-08 22:17 | 55.06287 | 12.44749 | 12126 ft | 328 kts | 19° |
| 2026-05-08 22:18 | 55.08554 | 12.45219 | 11053 ft | 332 kts | 358° |
| 2026-05-08 22:18 | 55.10836 | 12.44877 | 10041 ft | 332 kts | 355° |
| 2026-05-08 22:18 | 55.13136 | 12.44461 | 9015 ft | 328 kts | 356° |
| 2026-05-08 22:18 | 55.15414 | 12.44108 | 8163 ft | 316 kts | 358° |
| 2026-05-08 22:19 | 55.17546 | 12.43830 | 7629 ft | 298 kts | 359° |
| 2026-05-08 22:19 | 55.19559 | 12.43600 | 7164 ft | 281 kts | 359° |
| 2026-05-08 22:19 | 55.21478 | 12.43402 | 6697 ft | 267 kts | 0° |
| 2026-05-08 22:19 | 55.23299 | 12.43227 | 6282 ft | 256 kts | 0° |
| 2026-05-08 22:20 | 55.25043 | 12.43069 | 5948 ft | 250 kts | 1° |
| 2026-05-08 22:20 | 55.26761 | 12.42919 | 5616 ft | 248 kts | 1° |
| 2026-05-08 22:20 | 55.28497 | 12.42770 | 5280 ft | 247 kts | 1° |
| 2026-05-08 22:20 | 55.30182 | 12.42621 | 4971 ft | 240 kts | 1° |
| 2026-05-08 22:21 | 55.31835 | 12.42476 | 4689 ft | 237 kts | 1° |
| 2026-05-08 22:21 | 55.33487 | 12.42332 | 4401 ft | 235 kts | 1° |
| 2026-05-08 22:21 | 55.35105 | 12.42190 | 4117 ft | 233 kts | 1° |
| 2026-05-08 22:21 | 55.36718 | 12.42049 | 3844 ft | 231 kts | 1° |
| 2026-05-08 22:22 | 55.38305 | 12.41909 | 3587 ft | 229 kts | 1° |
| 2026-05-08 22:22 | 55.39892 | 12.41769 | 3327 ft | 226 kts | 1° |
| 2026-05-08 22:22 | 55.41462 | 12.41632 | 3064 ft | 223 kts | 1° |
| 2026-05-08 22:22 | 55.42976 | 12.41496 | 2797 ft | 214 kts | 1° |
| 2026-05-08 22:23 | 55.44433 | 12.41365 | 2536 ft | 205 kts | 1° |
| 2026-05-08 22:23 | 55.45803 | 12.41243 | 2468 ft | 192 kts | 5° |
| 2026-05-08 22:23 | 55.47027 | 12.41802 | 2504 ft | 177 kts | 34° |
| 2026-05-08 22:23 | 55.48000 | 12.43007 | 2485 ft | 161 kts | 43° |
| 2026-05-08 22:24 | 55.48829 | 12.44219 | 2491 ft | 154 kts | 45° |
| 2026-05-08 22:24 | 55.49635 | 12.45460 | 2508 ft | 153 kts | 46° |
| 2026-05-08 22:24 | 55.50436 | 12.46708 | 2361 ft | 153 kts | 46° |
| 2026-05-08 22:24 | 55.51234 | 12.47952 | 2146 ft | 152 kts | 46° |
| 2026-05-08 22:25 | 55.52026 | 12.49182 | 1937 ft | 152 kts | 47° |
| 2026-05-08 22:25 | 55.52825 | 12.50424 | 1725 ft | 152 kts | 46° |
| 2026-05-08 22:25 | 55.53611 | 12.51644 | 1520 ft | 151 kts | 46° |
| 2026-05-08 22:25 | 55.54385 | 12.52844 | 1323 ft | 142 kts | 46° |
| 2026-05-08 22:26 | 55.55101 | 12.53954 | 1118 ft | 132 kts | 46° |
| 2026-05-08 22:26 | 55.55780 | 12.55008 | 940 ft | 129 kts | 45° |
| 2026-05-08 22:26 | 55.56453 | 12.56053 | 760 ft | 129 kts | 45° |
| 2026-05-08 22:26 | 55.57130 | 12.57097 | 598 ft | 129 kts | 44° |
| 2026-05-08 22:27 | 55.57800 | 12.58139 | 418 ft | 128 kts | 44° |
| 2026-05-08 22:27 | 55.58473 | 12.59182 | 243 ft | 128 kts | 43° |
| 2026-05-08 22:27 | 55.59136 | 12.60204 | 76 ft | 127 kts | 44° |
| 2026-05-08 22:27 | 55.59768 | 12.61203 | 21 ft | 108 kts | 41° |
| 2026-05-08 22:28 | 55.60204 | 12.61876 | 26 ft | 57 kts | 41° |
| 2026-05-08 22:28 | 55.60395 | 12.62167 | 26 ft | 28 kts | 37° |
| 2026-05-08 22:28 | 55.60566 | 12.62320 | 24 ft | 27 kts | 16° |
| 2026-05-08 22:28 | 55.60726 | 12.62385 | 22 ft | 19 kts | 9° |
| 2026-05-08 22:29 | 55.60850 | 12.62492 | 21 ft | 20 kts | 41° |
| 2026-05-08 22:29 | 55.60957 | 12.62665 | 20 ft | 21 kts | 40° |
| 2026-05-08 22:29 | 55.61072 | 12.62837 | 19 ft | 22 kts | 39° |
| 2026-05-08 22:29 | 55.61190 | 12.63019 | 19 ft | 22 kts | 41° |
| 2026-05-08 22:30 | 55.61304 | 12.63196 | 20 ft | 21 kts | 40° |
| 2026-05-08 22:30 | 55.61417 | 12.63370 | 22 ft | 20 kts | 40° |
| 2026-05-08 22:30 | 55.61527 | 12.63540 | 23 ft | 20 kts | 41° |
| 2026-05-08 22:30 | 55.61639 | 12.63712 | 23 ft | 20 kts | 39° |
| 2026-05-08 22:31 | 55.61747 | 12.63880 | 24 ft | 20 kts | 41° |
| 2026-05-08 22:31 | 55.61850 | 12.64038 | 24 ft | 17 kts | 36° |
| 2026-05-08 22:31 | 55.61924 | 12.64143 | 25 ft | 12 kts | 67° |
| 2026-05-08 22:31 | 55.61943 | 12.64294 | 26 ft | 12 kts | 78° |
| 2026-05-08 22:32 | 55.61965 | 12.64457 | 26 ft | 14 kts | 64° |
| 2026-05-08 22:32 | 55.62042 | 12.64574 | 26 ft | 15 kts | 32° |
| 2026-05-08 22:32 | 55.62133 | 12.64680 | 26 ft | 16 kts | 32° |
| 2026-05-08 22:32 | 55.62229 | 12.64792 | 26 ft | 16 kts | 34° |
| 2026-05-08 22:33 | 55.62301 | 12.64879 | 26 ft | 10 kts | 31° |
| 2026-05-08 22:33 | 55.62306 | 12.64996 | 26 ft | 11 kts | 122° |
| 2026-05-08 22:33 | 55.62274 | 12.65124 | 26 ft | 11 kts | 80° |
| 2026-05-08 22:33 | 55.62331 | 12.65201 | 26 ft | 11 kts | 0° |
| 2026-05-08 22:34 | 55.62413 | 12.65205 | 26 ft | 10 kts | 18° |
| 2026-05-08 22:34 | 55.62440 | 12.65314 | 26 ft | 11 kts | 90° |
| 2026-05-08 22:34 | 55.62442 | 12.65455 | 26 ft | 9 kts | 89° |
| 2026-05-08 22:34 | 55.62464 | 12.65526 | 26 ft | 7 kts | 25° |
| 2026-05-08 22:35 | 55.62504 | 12.65559 | 26 ft | 4 kts | 24° |
| 2026-05-08 22:35 | 55.62517 | 12.65569 | 26 ft | 0 kts | 24° |
| 2026-05-08 22:35 | 55.62519 | 12.65570 | 26 ft | 0 kts | 22° |